CYAH

La Grande-4 Airport

Code ICAO CYAH
Code IATA YAH
Nom La Grande-4 Airport
Emplacement La Grande-4, Quebec, CA
Élévation 1005 pieds / 306.3 mètres
Latitude 53.75472222
Longitude -73.67527778
METAR CYAH 211000Z AUTO VRB04KT 9SM BKN230 10/06 A2952 RMK SLP005 DENSITY ALT 1200FT
Informations extras Afficher cartes et CFS
Afficher NOTAMS
Piste Longueur Largeur Surface Élévation
09 5009 ft 150 ft GRAVEL 993 ft
27 5009 ft 150 ft GRAVEL 1002 ft